Time;durP1;ratioP1;P1;durP2;ratioP2;P2;SDS_P1;SDS_P2;PMS_P1;PMS_P2;Temp;Humidity;BMP_temperature;BMP_pressure;BME280_temperature;BME280_humidity;BME280_pressure;Samples;Min_cycle;Max_cycle;Signal;HPM_P1;HPM_P2
2023/03/16 00:02:25;;;;;;;1999.90;999.90;;;;;;;1.91;68.76;98065.50;5095878;28;20442;-79
2023/03/16 00:04:50;;;;;;;1999.90;999.90;;;;;;;1.93;68.75;98066.09;5108918;28;20016;-78
2023/03/16 00:07:16;;;;;;;1999.90;999.90;;;;;;;1.97;69.41;98069.16;5098576;28;20132;-76
2023/03/16 00:09:41;;;;;;;1999.90;999.90;;;;;;;1.88;69.53;98076.75;5101163;28;20423;-77
2023/03/16 00:12:18;;;;;;;1999.90;999.90;;;;;;;1.88;69.92;98071.38;5103914;28;20043;-79
2023/03/16 00:14:48;;;;;;;1999.90;999.90;;;;;;;1.91;69.99;98081.69;5094023;28;20052;-78
2023/03/16 00:17:19;;;;;;;1999.90;999.90;;;;;;;2.01;69.79;98076.50;5097368;28;20028;-79
2023/03/16 00:19:46;;;;;;;1999.90;999.90;;;;;;;2.03;68.83;98084.38;5091806;28;20048;-78
2023/03/16 00:22:14;;;;;;;1999.90;999.90;;;;;;;2.00;69.17;98079.47;5103328;28;20034;-76
2023/03/16 00:24:42;;;;;;;1999.90;999.90;;;;;;;2.01;68.89;98076.50;5103154;28;20106;-77
2023/03/16 00:27:13;;;;;;;1999.90;999.90;;;;;;;2.05;69.77;98080.38;5093043;28;20107;-77
2023/03/16 00:29:54;;;;;;;1999.90;999.90;;;;;;;2.05;69.27;98091.16;5098515;28;20039;-76
2023/03/16 00:32:24;;;;;;;1999.90;999.90;;;;;;;2.16;69.04;98090.31;5097630;28;20036;-76
2023/03/16 00:34:50;;;;;;;1999.90;999.90;;;;;;;2.20;68.92;98087.13;5105798;28;20028;-78
2023/03/16 00:37:17;;;;;;;1999.90;999.90;;;;;;;2.32;68.47;98090.66;5108420;28;20077;-76
2023/03/16 00:39:45;;;;;;;1999.90;999.90;;;;;;;2.16;69.47;98089.50;5099478;28;20420;-79
2023/03/16 00:42:13;;;;;;;1999.90;999.90;;;;;;;2.26;69.84;98088.88;5100370;28;20062;-76
2023/03/16 00:44:40;;;;;;;1999.90;999.90;;;;;;;2.35;69.77;98090.97;5107095;28;20446;-76
2023/03/16 00:47:06;;;;;;;1999.90;999.90;;;;;;;2.34;67.68;98091.22;5094655;28;20067;-77
2023/03/16 00:49:33;;;;;;;1999.90;999.90;;;;;;;2.36;68.18;98087.22;5112225;28;20016;-76
2023/03/16 00:52:03;;;;;;;1999.90;999.90;;;;;;;2.30;68.89;98090.06;5112157;27;20056;-77
2023/03/16 00:54:31;;;;;;;1999.90;999.90;;;;;;;2.33;68.60;98093.09;5112007;28;20106;-78
2023/03/16 00:56:57;;;;;;;1999.90;999.90;;;;;;;2.34;68.94;98093.91;5112555;28;20542;-80
2023/03/16 00:59:25;;;;;;;1999.90;999.90;;;;;;;2.32;68.94;98096.84;5112481;28;20024;-81
2023/03/16 01:01:51;;;;;;;1999.90;999.90;;;;;;;2.49;68.81;98100.44;5112756;28;20027;-77
2023/03/16 01:04:16;;;;;;;1999.90;999.90;;;;;;;2.50;68.75;98103.97;5112295;28;20016;-80
2023/03/16 01:06:43;;;;;;;1999.90;999.90;;;;;;;2.49;68.26;98110.41;5112322;28;20027;-80
2023/03/16 01:09:09;;;;;;;1999.90;999.90;;;;;;;2.36;68.49;98103.41;5078008;28;20028;-82
2023/03/16 01:11:34;;;;;;;1999.90;999.90;;;;;;;2.35;68.11;98098.25;5071663;28;20032;-76
2023/03/16 01:14:00;;;;;;;1999.90;999.90;;;;;;;2.40;68.08;98101.88;5071690;28;20084;-77
2023/03/16 01:16:26;;;;;;;1999.90;999.90;;;;;;;2.37;67.42;98096.13;5073297;28;20377;-78
2023/03/16 01:18:52;;;;;;;1999.90;999.90;;;;;;;2.38;67.72;98097.78;5071223;28;20020;-78
2023/03/16 01:21:18;;;;;;;1999.90;999.90;;;;;;;2.39;68.28;98102.09;5070864;28;20096;-78
2023/03/16 01:23:44;;;;;;;1999.90;999.90;;;;;;;2.44;67.18;98104.91;5071102;28;20514;-79
2023/03/16 01:26:10;;;;;;;1999.90;999.90;;;;;;;2.36;67.26;98092.63;5071440;28;20043;-75
2023/03/16 01:28:36;;;;;;;1999.90;999.90;;;;;;;2.30;65.86;98098.16;5070903;28;20081;-76
2023/03/16 01:31:07;;;;;;;1999.90;999.90;;;;;;;2.11;66.02;98090.22;5070942;28;20044;-75
2023/03/16 01:33:33;;;;;;;1999.90;999.90;;;;;;;2.24;66.75;98101.78;5070723;28;20060;-77
2023/03/16 01:36:02;;;;;;;1999.90;999.90;;;;;;;2.28;67.54;98098.41;5070929;28;20397;-77
2023/03/16 01:38:28;;;;;;;1999.90;999.90;;;;;;;2.33;67.67;98095.78;5070630;28;20025;-77
2023/03/16 01:40:54;;;;;;;1999.90;999.90;;;;;;;2.31;67.42;98105.19;5070397;28;20484;-78
2023/03/16 01:43:23;;;;;;;1999.90;999.90;;;;;;;2.31;68.15;98094.41;5070655;28;20070;-77
2023/03/16 01:45:54;;;;;;;1999.90;999.90;;;;;;;2.43;67.93;98093.31;5070734;28;20043;-78
2023/03/16 01:48:23;;;;;;;1999.90;999.90;;;;;;;2.51;66.24;98102.88;5070668;28;20051;-75
2023/03/16 01:50:51;;;;;;;1999.90;999.90;;;;;;;2.51;64.65;98110.97;5070711;28;20481;-78
2023/03/16 01:53:17;;;;;;;1999.90;999.90;;;;;;;2.45;65.12;98099.28;5069706;28;20036;-76
2023/03/16 01:55:43;;;;;;;1999.90;999.90;;;;;;;2.46;64.90;98094.69;5070940;28;20493;-75
2023/03/16 01:58:09;;;;;;;1999.90;999.90;;;;;;;2.39;65.38;98096.72;5070798;28;20029;-75
2023/03/16 02:00:35;;;;;;;1999.90;999.90;;;;;;;2.36;66.78;98105.28;5070702;28;20024;-75
2023/03/16 02:03:09;;;;;;;1999.90;999.90;;;;;;;2.29;66.88;98104.63;5070229;28;20166;-77
2023/03/16 02:05:43;;;;;;;1999.90;999.90;;;;;;;2.15;67.37;98102.19;5070341;28;20108;-77
2023/03/16 02:08:11;;;;;;;1999.90;999.90;;;;;;;2.10;67.93;98106.63;5070375;28;20032;-74
2023/03/16 02:10:38;;;;;;;1999.90;999.90;;;;;;;2.13;68.91;98104.28;5069434;28;20579;-74
2023/03/16 02:13:04;;;;;;;1999.90;999.90;;;;;;;1.99;68.50;98097.50;5070477;28;20039;-76
2023/03/16 02:15:29;;;;;;;1999.90;999.90;;;;;;;2.04;69.14;98110.28;5070575;28;20053;-78
2023/03/16 02:17:58;;;;;;;1999.90;999.90;;;;;;;2.12;69.44;98120.72;5070753;28;20036;-76
2023/03/16 02:20:33;;;;;;;1999.90;999.90;;;;;;;2.08;70.30;98120.38;5070400;28;20028;-76
2023/03/16 02:22:59;;;;;;;1999.90;999.90;;;;;;;2.02;71.78;98118.63;5071464;28;20479;-76
2023/03/16 02:25:53;;;;;;;1999.90;999.90;;;;;;;1.98;72.42;98122.84;5103231;28;20400;-76
2023/03/16 02:28:29;;;;;;;1999.90;999.90;;;;;;;1.96;71.63;98118.75;5070648;28;20029;-78
2023/03/16 02:30:56;;;;;;;1999.90;999.90;;;;;;;1.90;72.63;98125.91;5069799;28;20024;-76
2023/03/16 02:33:21;;;;;;;1999.90;999.90;;;;;;;1.86;72.96;98122.03;5070029;28;20037;-78
2023/03/16 02:35:47;;;;;;;1999.90;999.90;;;;;;;1.89;72.60;98128.81;5073712;28;20836;-77
2023/03/16 02:38:12;;;;;;;1999.90;999.90;;;;;;;1.88;73.26;98133.38;5074187;28;20082;-77
2023/03/16 02:40:38;;;;;;;1999.90;999.90;;;;;;;1.77;73.45;98128.84;5075617;28;20091;-79
2023/03/16 02:43:03;;;;;;;1999.90;999.90;;;;;;;1.75;73.95;98144.44;5074710;28;20090;-76
2023/03/16 02:45:38;;;;;;;1999.90;999.90;;;;;;;1.69;75.48;98139.16;5072886;28;20028;-78
2023/03/16 02:48:07;;;;;;;1999.90;999.90;;;;;;;1.65;76.96;98127.19;5074039;28;20027;-76
2023/03/16 02:50:33;;;;;;;1999.90;999.90;;;;;;;1.74;76.10;98137.41;5074194;28;20028;-78
2023/03/16 02:52:58;;;;;;;1999.90;999.90;;;;;;;1.65;75.58;98133.41;5073849;28;20086;-79
2023/03/16 02:55:23;;;;;;;1999.90;999.90;;;;;;;1.55;77.25;98141.25;5073758;28;20116;-76
2023/03/16 02:57:49;;;;;;;1999.90;999.90;;;;;;;1.50;79.59;98141.13;5074201;28;20032;-75
2023/03/16 03:00:17;;;;;;;1999.90;999.90;;;;;;;1.49;80.02;98140.31;5073612;28;20086;-76
2023/03/16 03:02:44;;;;;;;1999.90;999.90;;;;;;;1.55;79.24;98147.47;5073634;28;20117;-75
2023/03/16 03:05:10;;;;;;;1999.90;999.90;;;;;;;1.45;79.10;98146.38;5073669;28;20033;-75
2023/03/16 03:07:36;;;;;;;1999.90;999.90;;;;;;;1.34;79.60;98141.81;5073388;28;20025;-75
2023/03/16 03:10:02;;;;;;;1999.90;999.90;;;;;;;1.35;80.62;98140.75;5073464;28;20435;-75
2023/03/16 03:12:27;;;;;;;1999.90;999.90;;;;;;;1.39;80.60;98150.00;5073195;28;20032;-74
2023/03/16 03:14:56;;;;;;;1999.90;999.90;;;;;;;1.29;80.62;98133.59;5073044;28;20538;-77
2023/03/16 03:17:29;;;;;;;1999.90;999.90;;;;;;;1.22;80.81;98143.66;5071649;28;20036;-75
2023/03/16 03:19:59;;;;;;;1999.90;999.90;;;;;;;1.21;82.29;98150.09;5073279;28;20392;-74
2023/03/16 03:22:25;;;;;;;1999.90;999.90;;;;;;;1.08;82.66;98160.03;5073190;28;20027;-74
2023/03/16 03:24:51;;;;;;;1999.90;999.90;;;;;;;1.14;83.81;98155.59;5073059;28;20028;-75
2023/03/16 03:27:16;;;;;;;1999.90;999.90;;;;;;;1.08;84.10;98167.28;5072065;28;20536;-75
2023/03/16 03:29:43;;;;;;;1999.90;999.90;;;;;;;1.13;84.80;98167.41;5073042;28;20060;-77
2023/03/16 03:32:09;;;;;;;1999.90;999.90;;;;;;;1.09;84.94;98179.69;5073315;28;20434;-75
2023/03/16 03:34:36;;;;;;;1999.90;999.90;;;;;;;1.12;84.03;98171.16;5072923;28;20033;-74
2023/03/16 03:37:01;;;;;;;1999.90;999.90;;;;;;;1.05;84.82;98173.94;5072979;28;20389;-75
2023/03/16 03:39:27;;;;;;;1999.90;999.90;;;;;;;1.22;83.74;98176.00;5073054;28;20036;-75
2023/03/16 03:41:53;;;;;;;1999.90;999.90;;;;;;;1.16;82.90;98172.31;5072857;28;20020;-75
2023/03/16 03:44:20;;;;;;;1999.90;999.90;;;;;;;1.11;84.25;98179.44;5072835;28;21123;-75
2023/03/16 03:46:46;;;;;;;1999.90;999.90;;;;;;;1.08;83.30;98178.88;5073104;28;20025;-75
2023/03/16 03:49:11;;;;;;;1999.90;999.90;;;;;;;1.04;83.10;98193.00;5073419;28;20025;-75
2023/03/16 03:51:37;;;;;;;1999.90;999.90;;;;;;;1.07;83.30;98201.47;5072986;28;20035;-75
2023/03/16 03:54:02;;;;;;;1999.90;999.90;;;;;;;1.12;82.86;98202.66;5073793;28;20032;-75
2023/03/16 03:56:28;;;;;;;1999.90;999.90;;;;;;;1.04;83.26;98207.31;5073906;28;20025;-75
2023/03/16 03:58:53;;;;;;;1999.90;999.90;;;;;;;1.05;84.78;98203.56;5074325;28;20060;-74
2023/03/16 04:01:18;;;;;;;1999.90;999.90;;;;;;;1.04;84.32;98207.31;5073765;28;20036;-77
2023/03/16 04:03:44;;;;;;;1999.90;999.90;;;;;;;1.07;84.24;98201.47;5074961;28;20412;-77
2023/03/16 04:06:09;;;;;;;1999.90;999.90;;;;;;;0.96;85.78;98204.94;5075361;28;20032;-76
2023/03/16 04:08:35;;;;;;;1999.90;999.90;;;;;;;0.97;86.26;98208.47;5074869;28;20024;-76
2023/03/16 04:11:00;;;;;;;1999.90;999.90;;;;;;;1.05;90.62;98208.97;5077334;28;20040;-75
2023/03/16 04:13:26;;;;;;;1999.90;999.90;;;;;;;1.15;91.13;98218.34;5076449;28;20028;-76
2023/03/16 04:15:57;;;;;;;1999.90;999.90;;;;;;;1.05;88.27;98219.72;5076264;28;20481;-76
2023/03/16 04:18:22;;;;;;;1999.90;999.90;;;;;;;1.01;87.76;98209.63;5086552;28;20033;-79
2023/03/16 04:20:48;;;;;;;1999.90;999.90;;;;;;;1.02;86.46;98214.81;5086648;28;20031;-75
2023/03/16 04:23:15;;;;;;;1999.90;999.90;;;;;;;1.02;85.83;98222.88;5071990;28;20040;-73
2023/03/16 04:25:41;;;;;;;1999.90;999.90;;;;;;;0.93;87.09;98223.41;5088033;28;20032;-77
2023/03/16 04:28:06;;;;;;;1999.90;999.90;;;;;;;0.88;88.83;98224.09;5092466;28;20464;-75
2023/03/16 04:30:32;;;;;;;1999.90;999.90;;;;;;;0.85;87.91;98229.09;5092007;28;20028;-76
2023/03/16 04:32:57;;;;;;;1999.90;999.90;;;;;;;0.82;88.33;98222.31;5092546;28;20076;-75
2023/03/16 04:35:22;;;;;;;1999.90;999.90;;;;;;;0.93;88.40;98231.50;5091730;28;20028;-76
2023/03/16 04:37:48;;;;;;;1999.90;999.90;;;;;;;0.96;89.01;98231.88;5077269;28;20495;-76
2023/03/16 04:40:16;;;;;;;1999.90;999.90;;;;;;;0.96;88.84;98237.25;5071343;28;20121;-76
2023/03/16 04:42:43;;;;;;;1999.90;999.90;;;;;;;0.89;89.26;98227.59;5071325;28;20021;-74
2023/03/16 04:45:10;;;;;;;1999.90;999.90;;;;;;;0.88;90.58;98229.47;5071363;28;20066;-74
2023/03/16 04:47:36;;;;;;;1999.90;999.90;;;;;;;0.79;92.16;98228.13;5071450;28;20548;-75
2023/03/16 04:50:02;;;;;;;1999.90;999.90;;;;;;;0.65;94.08;98228.53;5071247;28;20028;-76
2023/03/16 04:52:27;;;;;;;1999.90;999.90;;;;;;;0.64;94.96;98227.72;5070759;28;20381;-75
2023/03/16 04:54:53;;;;;;;1999.90;999.90;;;;;;;0.62;95.60;98245.97;5070892;28;20028;-75
2023/03/16 04:57:18;;;;;;;1999.90;999.90;;;;;;;0.58;96.66;98234.00;5069779;28;20024;-76
2023/03/16 04:59:44;;;;;;;1999.90;999.90;;;;;;;0.63;97.70;98242.19;5071217;28;20735;-76
2023/03/16 05:02:09;;;;;;;1999.90;999.90;;;;;;;0.64;98.46;98243.84;5070990;28;20443;-76
2023/03/16 05:04:35;;;;;;;1999.90;999.90;;;;;;;0.60;99.32;98231.88;5077931;28;20025;-75
2023/03/16 05:07:00;;;;;;;1999.90;999.90;;;;;;;0.54;100.00;98244.38;5070665;28;20086;-78
2023/03/16 05:09:25;;;;;;;1999.90;999.90;;;;;;;0.42;100.00;98250.72;5070723;28;20492;-75
2023/03/16 05:11:51;;;;;;;1999.90;999.90;;;;;;;0.43;100.00;98255.06;5071631;28;20029;-78
2023/03/16 05:14:16;;;;;;;1999.90;999.90;;;;;;;0.46;100.00;98246.56;5085715;28;20469;-75
2023/03/16 05:16:41;;;;;;;1999.90;999.90;;;;;;;0.51;100.00;98249.38;5091389;28;20059;-79
2023/03/16 05:19:07;;;;;;;1999.90;999.90;;;;;;;0.49;100.00;98254.19;5091486;28;20061;-75
2023/03/16 05:21:34;;;;;;;1999.90;999.90;;;;;;;0.36;100.00;98254.31;5091262;28;20036;-75
2023/03/16 05:23:59;;;;;;;1999.90;999.90;;;;;;;0.43;100.00;98258.59;5091738;28;20079;-82
2023/03/16 05:26:25;;;;;;;1999.90;999.90;;;;;;;0.34;100.00;98254.56;5091749;28;20008;-77
2023/03/16 05:28:50;;;;;;;1999.90;999.90;;;;;;;0.41;100.00;98254.44;5092075;28;20032;-74
2023/03/16 05:31:17;;;;;;;1999.90;999.90;;;;;;;0.48;100.00;98245.28;5093634;28;20020;-78
2023/03/16 05:33:43;;;;;;;1999.90;999.90;;;;;;;0.75;100.00;98259.25;5092202;28;20127;-75
2023/03/16 05:36:09;;;;;;;1999.90;999.90;;;;;;;1.03;99.40;98264.88;5091404;28;20043;-77
2023/03/16 05:38:35;;;;;;;1999.90;999.90;;;;;;;0.93;97.75;98274.56;5091113;28;20024;-78
2023/03/16 05:41:03;;;;;;;1999.90;999.90;;;;;;;0.82;99.00;98280.69;5085120;28;20031;-75
2023/03/16 05:43:29;;;;;;;1999.90;999.90;;;;;;;0.64;100.00;98297.69;5076232;28;21098;-75
2023/03/16 05:45:55;;;;;;;1999.90;999.90;;;;;;;0.69;100.00;98289.75;5071723;28;20059;-74
2023/03/16 05:48:20;;;;;;;1999.90;999.90;;;;;;;0.58;100.00;98300.44;5090779;28;20039;-74
2023/03/16 05:50:47;;;;;;;1999.90;999.90;;;;;;;0.54;100.00;98297.38;5090604;28;20381;-76
2023/03/16 05:53:14;;;;;;;1999.90;999.90;;;;;;;0.66;100.00;98300.97;5090509;28;20373;-77
2023/03/16 05:55:40;;;;;;;1999.90;999.90;;;;;;;0.61;100.00;98290.06;5090467;28;20039;-76
2023/03/16 05:58:05;;;;;;;1999.90;999.90;;;;;;;0.52;100.00;98283.31;5091402;28;20028;-76
2023/03/16 06:00:30;;;;;;;1999.90;999.90;;;;;;;0.51;100.00;98295.13;5091173;28;20031;-75
2023/03/16 06:02:56;;;;;;;1999.90;999.90;;;;;;;0.45;100.00;98288.78;5090813;28;20107;-76
2023/03/16 06:05:23;;;;;;;1999.90;999.90;;;;;;;0.58;100.00;98293.19;5091084;28;20029;-77
2023/03/16 06:07:49;;;;;;;1999.90;999.90;;;;;;;0.73;98.85;98290.13;5090991;28;20522;-76
2023/03/16 06:10:14;;;;;;;1999.90;999.90;;;;;;;0.74;99.37;98294.47;5094897;28;20074;-75
2023/03/16 06:12:40;;;;;;;1999.90;999.90;;;;;;;0.94;98.79;98301.25;5107848;28;20040;-75
2023/03/16 06:15:07;;;;;;;1999.90;999.90;;;;;;;1.11;95.26;98306.03;5095131;28;20041;-74
2023/03/16 06:17:33;;;;;;;1999.90;999.90;;;;;;;1.28;92.82;98304.38;5110478;28;20127;-77
2023/03/16 06:19:58;;;;;;;1999.90;999.90;;;;;;;1.47;91.40;98300.59;5088815;28;20016;-77
2023/03/16 06:22:25;;;;;;;1999.90;999.90;;;;;;;1.57;89.31;98314.31;5117170;28;20020;-76
2023/03/16 06:24:50;;;;;;;1999.90;999.90;;;;;;;1.67;88.31;98314.59;5096196;28;20020;-77
2023/03/16 06:27:18;;;;;;;1999.90;999.90;;;;;;;2.10;85.22;98323.25;5094340;28;20020;-76
2023/03/16 06:29:44;;;;;;;1999.90;999.90;;;;;;;2.50;81.93;98336.94;5095223;28;20115;-75
2023/03/16 06:32:10;;;;;;;1999.90;999.90;;;;;;;2.79;80.56;98337.84;5094449;28;20446;-72
2023/03/16 06:34:35;;;;;;;1999.90;999.90;;;;;;;2.84;79.75;98343.38;5094161;28;20089;-72
2023/03/16 06:37:01;;;;;;;1999.90;999.90;;;;;;;2.93;77.72;98346.53;5094153;28;20028;-71
2023/03/16 06:39:26;;;;;;;1999.90;999.90;;;;;;;3.06;78.06;98357.91;5094182;28;20020;-72
2023/03/16 06:41:52;;;;;;;1999.90;999.90;;;;;;;3.08;74.49;98366.59;5092287;28;20063;-71
2023/03/16 06:44:21;;;;;;;1999.90;999.90;;;;;;;3.22;73.05;98373.41;5092875;28;20473;-76
2023/03/16 06:46:46;;;;;;;1999.90;999.90;;;;;;;3.28;71.08;98362.69;5092976;28;20131;-77
2023/03/16 06:49:11;;;;;;;1999.90;999.90;;;;;;;3.35;69.75;98366.09;5092189;28;20119;-76
2023/03/16 06:51:37;;;;;;;1999.90;999.90;;;;;;;3.19;70.35;98373.88;5092792;28;20400;-75
2023/03/16 06:54:02;;;;;;;1999.90;999.90;;;;;;;3.50;70.60;98383.44;5092159;28;20028;-76
2023/03/16 06:56:27;;;;;;;1999.90;999.90;;;;;;;3.90;68.66;98379.88;5095029;28;20028;-76
2023/03/16 06:58:53;;;;;;;1999.90;999.90;;;;;;;4.13;67.21;98380.59;5093705;28;20020;-75
2023/03/16 07:01:19;;;;;;;1999.90;999.90;;;;;;;4.35;66.06;98377.19;5093012;28;20036;-76
2023/03/16 07:03:44;;;;;;;1999.90;999.90;;;;;;;4.69;64.50;98381.53;5092785;28;20376;-74
2023/03/16 07:06:11;;;;;;;1999.90;999.90;;;;;;;5.13;61.47;98390.59;5092701;28;20028;-74
2023/03/16 07:08:36;;;;;;;1999.90;999.90;;;;;;;5.38;59.22;98386.34;5095106;28;20028;-84
2023/03/16 07:11:01;;;;;;;1999.90;999.90;;;;;;;5.77;57.60;98391.69;5107008;28;20003;-85
2023/03/16 07:13:27;;;;;;;1999.90;999.90;;;;;;;5.93;55.66;98396.25;5109817;28;20042;-83
2023/03/16 07:15:52;;;;;;;1999.90;999.90;;;;;;;5.68;56.45;98404.06;5109675;28;20075;-82
2023/03/16 07:18:18;;;;;;;1999.90;999.90;;;;;;;5.82;56.46;98402.63;5104647;28;20046;-83
2023/03/16 07:20:44;;;;;;;1999.90;999.90;;;;;;;5.73;56.08;98402.22;5100700;28;20049;-88
2023/03/16 07:23:09;;;;;;;1999.90;999.90;;;;;;;5.78;55.02;98396.06;5095666;28;20028;-79
2023/03/16 07:25:35;;;;;;;1999.90;999.90;;;;;;;5.73;55.85;98396.81;5094996;28;20028;-78
2023/03/16 07:28:01;;;;;;;1999.90;999.90;;;;;;;6.23;56.09;98404.75;5096552;28;20066;-83
2023/03/16 07:30:26;;;;;;;1999.90;999.90;;;;;;;6.76;53.65;98397.63;5096853;28;20016;-81
2023/03/16 07:32:51;;;;;;;1999.90;999.90;;;;;;;6.65;52.66;98377.66;5096747;28;20031;-81
2023/03/16 07:35:17;;;;;;;1999.90;999.90;;;;;;;6.93;52.88;98395.56;5091490;28;20035;-81
2023/03/16 07:37:42;;;;;;;1999.90;999.90;;;;;;;7.11;53.11;98403.28;5093299;28;20469;-78
2023/03/16 07:40:09;;;;;;;1999.90;999.90;;;;;;;7.48;51.68;98403.25;5095207;28;20032;-84
2023/03/16 07:42:35;;;;;;;1999.90;999.90;;;;;;;8.23;50.52;98401.91;5094019;28;20036;-78
2023/03/16 07:45:01;;;;;;;1999.90;999.90;;;;;;;9.90;47.28;98402.59;5091498;28;20111;-84
2023/03/16 07:47:29;;;;;;;1999.90;999.90;;;;;;;11.68;41.76;98396.28;5096243;28;20048;-82
2023/03/16 07:49:54;;;;;;;1999.90;999.90;;;;;;;14.33;37.11;98409.00;5096979;28;20031;-88
2023/03/16 07:52:19;;;;;;;1999.90;999.90;;;;;;;14.40;35.51;98409.41;5098796;28;20115;-85
2023/03/16 07:54:45;;;;;;;1999.90;999.90;;;;;;;15.73;33.43;98417.69;5097380;28;20063;-82
2023/03/16 07:57:10;;;;;;;1999.90;999.90;;;;;;;16.46;31.81;98407.88;5096833;28;20016;-82
2023/03/16 07:59:37;;;;;;;1999.90;999.90;;;;;;;17.40;29.91;98416.19;5097988;28;20040;-85
2023/03/16 08:02:02;;;;;;;1999.90;999.90;;;;;;;17.37;29.93;98427.09;5097215;28;20031;-85
2023/03/16 08:04:28;;;;;;;1999.90;999.90;;;;;;;17.52;29.28;98418.25;5096686;28;20032;-83
2023/03/16 08:06:58;;;;;;;1999.90;999.90;;;;;;;18.73;27.74;98414.63;5097928;28;20071;-86
2023/03/16 08:09:25;;;;;;;1999.90;999.90;;;;;;;18.15;27.44;98421.00;5098619;28;20032;-87
2023/03/16 08:11:50;;;;;;;1999.90;999.90;;;;;;;18.60;27.40;98414.91;5100690;28;20067;-85
2023/03/16 08:14:16;;;;;;;1999.90;999.90;;;;;;;19.56;28.13;98414.59;5099957;28;20496;-83
2023/03/16 08:16:41;;;;;;;1999.90;999.90;;;;;;;19.21;26.60;98425.19;5100003;28;20096;-86
2023/03/16 08:19:07;;;;;;;1999.90;999.90;;;;;;;18.78;25.93;98421.97;5099427;28;20020;-84
2023/03/16 08:21:33;;;;;;;1999.90;999.90;;;;;;;18.35;26.22;98418.63;5098898;28;20035;-84
2023/03/16 08:23:58;;;;;;;1999.90;999.90;;;;;;;17.23;27.83;98423.69;5099914;28;20028;-83
2023/03/16 08:26:25;;;;;;;1999.90;999.90;;;;;;;18.18;27.35;98422.28;5098673;28;20036;-83
2023/03/16 08:28:51;;;;;;;1999.90;999.90;;;;;;;17.91;25.58;98431.88;5097122;28;20472;-82
2023/03/16 08:31:17;;;;;;;1999.90;999.90;;;;;;;18.66;24.73;98428.25;5098598;28;20024;-87
2023/03/16 08:33:44;;;;;;;1999.90;999.90;;;;;;;17.40;24.88;98431.97;5100190;28;20417;-83
2023/03/16 08:36:12;;;;;;;1999.90;999.90;;;;;;;16.00;25.46;98433.25;5099207;28;20094;-82
2023/03/16 08:38:41;;;;;;;1999.90;999.90;;;;;;;16.83;25.19;98426.63;5096356;28;20035;-87
2023/03/16 08:41:07;;;;;;;1999.90;999.90;;;;;;;16.26;25.87;98430.56;5097065;28;20028;-80
2023/03/16 08:43:34;;;;;;;1999.90;999.90;;;;;;;15.70;26.04;98440.41;5096638;28;20026;-82
2023/03/16 08:46:00;;;;;;;1999.90;999.90;;;;;;;16.26;26.58;98436.88;5097877;28;20028;-80
2023/03/16 08:48:29;;;;;;;1999.90;999.90;;;;;;;17.49;25.52;98438.28;5100522;28;20100;-88
2023/03/16 08:50:54;;;;;;;1999.90;999.90;;;;;;;18.55;24.23;98443.63;5098978;28;20492;-82
2023/03/16 08:53:20;;;;;;;1999.90;999.90;;;;;;;17.90;24.38;98441.31;5097824;28;20066;-81
2023/03/16 08:55:48;;;;;;;1999.90;999.90;;;;;;;16.97;25.43;98443.88;5096877;28;20032;-85
2023/03/16 08:58:14;;;;;;;1999.90;999.90;;;;;;;17.72;25.18;98445.28;5096942;28;20028;-82
2023/03/16 09:00:40;;;;;;;1999.90;999.90;;;;;;;17.57;25.46;98438.28;5096210;28;20089;-84
2023/03/16 09:03:06;;;;;;;1999.90;999.90;;;;;;;17.82;24.73;98446.88;5097697;28;20031;-80
2023/03/16 09:05:37;;;;;;;1999.90;999.90;;;;;;;19.37;23.43;98444.78;5101939;28;20020;-85
2023/03/16 09:08:03;;;;;;;1999.90;999.90;;;;;;;18.14;23.86;98441.53;5103354;28;20024;-85
2023/03/16 09:10:32;;;;;;;1999.90;999.90;;;;;;;18.75;23.71;98432.91;5104507;28;20028;-82
2023/03/16 09:12:57;;;;;;;1999.90;999.90;;;;;;;19.39;23.11;98455.56;5104613;28;20023;-80
2023/03/16 09:15:23;;;;;;;1999.90;999.90;;;;;;;19.29;23.04;98450.41;5102495;28;20058;-85
2023/03/16 09:17:49;;;;;;;1999.90;999.90;;;;;;;17.91;23.81;98447.66;5102884;28;20035;-82
2023/03/16 09:20:17;;;;;;;1999.90;999.90;;;;;;;16.18;27.22;98443.22;5102457;28;20108;-88
2023/03/16 09:22:44;;;;;;;1999.90;999.90;;;;;;;17.73;25.75;98448.88;5102259;28;20074;-82
2023/03/16 09:25:10;;;;;;;1999.90;999.90;;;;;;;18.24;25.08;98450.59;5100736;28;20020;-87
2023/03/16 09:27:36;;;;;;;1999.90;999.90;;;;;;;18.63;24.39;98445.53;5101680;28;20079;-86
2023/03/16 09:30:09;;;;;;;1999.90;999.90;;;;;;;20.24;22.45;98451.84;5102851;28;20020;-84
2023/03/16 09:32:36;;;;;;;1999.90;999.90;;;;;;;20.15;21.88;98462.25;5102276;28;20110;-81
2023/03/16 09:35:02;;;;;;;1999.90;999.90;;;;;;;19.99;22.40;98457.72;5101090;28;20396;-83
2023/03/16 09:37:27;;;;;;;1999.90;999.90;;;;;;;19.36;23.33;98443.16;5100551;28;20019;-83
2023/03/16 09:39:53;;;;;;;1999.90;999.90;;;;;;;16.95;24.58;98448.91;5097436;28;20040;-83
2023/03/16 09:42:39;;;;;;;1999.90;999.90;;;;;;;17.54;25.09;98449.19;5100767;28;20019;-81
2023/03/16 09:45:17;;;;;;;1999.90;999.90;;;;;;;19.10;24.09;98454.50;5101237;28;20032;-84
2023/03/16 09:47:47;;;;;;;1999.90;999.90;;;;;;;20.08;22.52;98455.66;5100750;28;20457;-83
2023/03/16 09:50:20;;;;;;;1999.90;999.90;;;;;;;18.88;23.64;98451.25;5097193;28;20030;-81
2023/03/16 09:53:07;;;;;;;1999.90;999.90;;;;;;;16.64;24.89;98448.22;5103419;28;20037;-83
2023/03/16 09:55:36;;;;;;;1999.90;999.90;;;;;;;17.47;25.58;98448.88;5103613;28;20023;-83
2023/03/16 09:58:09;;;;;;;1999.90;999.90;;;;;;;16.57;25.67;98447.91;5101058;28;20020;-79
2023/03/16 10:00:46;;;;;;;1999.90;999.90;;;;;;;18.21;24.38;98454.84;5101265;28;20027;-80
2023/03/16 10:03:35;;;;;;;1999.90;999.90;;;;;;;17.92;24.57;98466.69;5100445;28;20083;-81
2023/03/16 10:06:03;;;;;;;1999.90;999.90;;;;;;;19.35;23.82;98463.75;5101389;28;20031;-87
2023/03/16 10:08:42;;;;;;;1999.90;999.90;;;;;;;17.68;25.09;98452.59;5101169;28;20026;-85
2023/03/16 10:11:30;;;;;;;1999.90;999.90;;;;;;;18.48;24.10;98459.13;5099438;28;20016;-83
2023/03/16 10:14:42;;;;;;;1999.90;999.90;;;;;;;19.52;23.57;98462.78;5099922;28;20052;-84
2023/03/16 10:17:17;;;;;;;1999.90;999.90;;;;;;;20.57;22.16;98462.91;5071574;28;20103;-83
2023/03/16 10:19:46;;;;;;;;;;;;;;;19.96;22.61;98467.53;5101002;28;20529;-78
2023/03/16 10:22:33;;;;;;;1999.90;999.90;;;;;;;21.24;21.08;98461.38;5100340;28;19915;-87
2023/03/16 10:25:20;;;;;;;1999.90;999.90;;;;;;;18.80;22.55;98464.00;5103544;28;20032;-80
2023/03/16 10:27:47;;;;;;;1999.90;999.90;;;;;;;19.27;22.50;98462.66;5099339;28;20028;-79
2023/03/16 10:30:33;;;;;;;1999.90;999.90;;;;;;;18.18;23.70;98464.66;5097744;28;20130;-81
2023/03/16 10:33:12;;;;;;;1999.90;999.90;;;;;;;19.13;22.80;98467.69;5098707;28;20024;-83
2023/03/16 10:35:45;;;;;;;1999.90;999.90;;;;;;;18.93;22.60;98460.16;5098971;28;20118;-78
2023/03/16 10:38:31;;;;;;;1999.90;999.90;;;;;;;19.06;22.50;98461.03;5099001;28;20025;-79
2023/03/16 10:40:58;;;;;;;1999.90;999.90;;;;;;;20.24;21.76;98471.28;5099987;28;20024;-82
2023/03/16 10:43:24;;;;;;;1999.90;999.90;;;;;;;19.80;22.31;98461.03;5099708;28;20408;-83
2023/03/16 10:45:49;;;;;;;1999.90;999.90;;;;;;;18.51;23.18;98461.28;5096945;28;20032;-83
2023/03/16 10:48:20;;;;;;;1999.90;999.90;;;;;;;18.62;23.92;98468.03;5097971;28;20036;-87
2023/03/16 10:50:56;;;;;;;1999.90;999.90;;;;;;;14.16;27.82;98444.56;5096717;28;20032;-83
2023/03/16 10:53:28;;;;;;;1999.90;999.90;;;;;;;17.14;25.33;98451.34;5094815;28;20105;-79
2023/03/16 10:56:00;;;;;;;1999.90;999.90;;;;;;;16.95;25.76;98454.44;5097354;28;20381;-82
2023/03/16 10:58:30;;;;;;;1999.90;999.90;;;;;;;16.55;26.02;98441.88;5099391;28;20020;-84
2023/03/16 11:00:56;;;;;;;1999.90;999.90;;;;;;;17.98;25.90;98443.22;5105796;28;20049;-87
2023/03/16 11:03:31;;;;;;;1999.90;999.90;;;;;;;18.87;24.64;98442.09;5107714;28;20063;-87